This is the latest recevied weather packets stored in our database for station/object Krozingen. If no packets are shown the sender has not sent any weather packets the latest 1 day(s).
| Time | Temp. | Humidity | Pressure | Rain* | Wind** | Luminosity | Snow |
|---|---|---|---|---|---|---|---|
| 1778068930 | 14.44° C | 86% | 1007.7 hPa | 0 mm | - | - | - |
| 1778067137 | 14.44° C | 82% | 1007.6 hPa | 0 mm | - | - | - |
| 1778061734 | 15° C | 77% | 1007.2 hPa | 0 mm | - | - | - |
| 1778059931 | 15° C | 74% | 1007.1 hPa | 0 mm | - | - | - |
| 1778058131 | 16.11° C | 72% | 1007 hPa | 0 mm | - | - | - |
| 1778054532 | 15° C | 75% | 1006.9 hPa | 0 mm | - | - | - |
| 1778052731 | 14.44° C | 77% | 1006.9 hPa | 0 mm | - | - | - |
| 1778050932 | 15° C | 76% | 1006.9 hPa | 0 mm | - | - | - |
| 1778040131 | 11.67° C | 85% | 1007.5 hPa | 0 mm | - | - | - |
| 1778036532 | 10.56° C | 89% | 1007.7 hPa | 0 mm | - | - | - |
| 1778032932 | 11.67° C | 84% | 1008.1 hPa | 0 mm | - | - | - |
| 1778031131 | 11.67° C | 86% | 1008.6 hPa | 0 mm | - | - | - |
| 1778029332 | 11.11° C | 87% | 1008.4 hPa | 0 mm | - | - | - |
| 1778020330 | 12.22° C | 86% | 1009.3 hPa | 0 mm | - | - | - |
| 1778016731 | 12.22° C | 86% | 1009.3 hPa | 3.3 mm | - | - | - |
| 1778011330 | 13.33° C | 88% | 1009.2 hPa | 3.3 mm | - | - | - |
| 1778002330 | 17.78° C | 73% | 1008.2 hPa | 3.3 mm | - | - | - |
| 1778000530 | 18.89° C | 69% | 1008.1 hPa | 3.3 mm | - | - | - |
| 1777998731 | 17.78° C | 74% | 1008.2 hPa | 3.3 mm | - | - | - |
| 1777995130 | 15.56° C | 90% | 1008.2 hPa | 3.3 mm | - | - | - |
* Rain since midnight (hover to see other rain measurements)
** Current wind speed in m/s (hover to see current wind gust speed)